Terminal Aerodrome Forecast
Issued by NWS

Home | Current Version | Previous Version | Text Only | Print | Product List | Glossary Off
Versions: 1 2 3 4 5 6 7 8 9 10 11 12 13 14 15 16 17 18 19 20 21

000
FTUS43 KICT 221129
TAFCNU
TAF
KCNU 221129Z 2212/2312 18012KT 3SM BR OVC003
     FM221500 17013KT 6SM BR VCSH BKN004 OVC010
      TEMPO 2216/2220 4SM TSRA BR BKN017CB
     FM222000 17013KT 4SM TSRA BR BKN007 OVC015CB=

USA.gov is the U.S. government's official web portal to all federal, state and local government web resources and services.